createdAt,value
2017-05-01T19:33:57.290Z,5.70
2017-05-01T19:36:26.489Z,6.58
2017-05-01T19:48:15.012Z,7.88
2017-05-01T19:50:44.251Z,8.36
2017-05-01T19:53:13.464Z,7.26
2017-05-01T19:55:42.715Z,6.82
2017-05-01T19:58:11.989Z,7.45
2017-05-01T20:00:41.194Z,7.66
2017-05-01T20:03:10.491Z,8.10
2017-05-01T20:05:39.701Z,7.72
2017-05-01T20:08:08.897Z,6.92
2017-05-01T20:10:38.142Z,7.76
2017-05-01T20:13:07.356Z,7.00
2017-05-01T20:15:36.583Z,7.26
2017-05-01T20:18:05.783Z,7.12
2017-05-01T20:20:35.029Z,6.56
2017-05-01T20:23:04.327Z,7.36
2017-05-01T20:25:33.525Z,7.20
2017-05-01T20:28:02.769Z,7.20
2017-05-01T20:30:32.040Z,9.08
2017-05-01T20:33:01.250Z,8.77
2017-05-01T20:35:30.483Z,7.75
2017-05-01T20:37:59.667Z,7.34
2017-05-01T20:40:28.861Z,7.40
2017-05-01T20:42:58.050Z,7.80
2017-05-01T20:45:27.258Z,7.66
2017-05-01T20:47:56.478Z,6.50
2017-05-01T20:50:25.684Z,7.75
2017-05-01T20:52:55.038Z,7.20
2017-05-01T20:55:24.265Z,6.22
2017-05-01T20:57:53.465Z,7.02
2017-05-01T21:00:22.713Z,6.62
2017-05-01T21:02:51.919Z,6.56
2017-05-01T21:05:21.107Z,6.36
2017-05-01T21:07:50.329Z,6.68
2017-05-01T21:10:20.487Z,7.18
2017-05-01T21:12:49.679Z,7.16
2017-05-01T21:15:18.884Z,5.76
2017-05-01T21:17:48.082Z,7.00
2017-05-01T21:20:17.263Z,5.82
2017-05-01T21:22:46.471Z,6.18
2017-05-01T21:25:15.666Z,6.74
2017-05-01T21:27:44.871Z,5.74
2017-05-01T21:30:14.118Z,6.46
2017-05-01T21:32:43.313Z,6.16
2017-05-01T21:35:12.535Z,5.50
2017-05-01T21:37:41.772Z,6.22
2017-05-01T21:40:11.003Z,5.58
2017-05-01T21:42:40.898Z,5.80
2017-05-01T21:45:10.118Z,5.70
2017-05-01T21:47:39.310Z,5.74
2017-05-01T21:50:08.507Z,5.88
2017-05-01T21:52:37.763Z,5.94
2017-05-01T21:55:07.622Z,5.90
2017-05-01T21:57:36.858Z,5.56
2017-05-01T22:00:06.048Z,6.20
2017-05-01T22:02:35.267Z,5.90
2017-05-01T22:05:04.484Z,5.22
2017-05-01T22:07:33.658Z,5.56
2017-05-01T22:10:02.886Z,5.74
2017-05-01T22:12:32.081Z,5.46
2017-05-01T22:15:01.275Z,5.38
2017-05-01T22:17:30.493Z,4.98
2017-05-01T22:19:59.690Z,5.48
2017-05-01T22:22:28.918Z,5.50
2017-05-01T22:24:58.095Z,4.70
2017-05-01T22:27:27.291Z,5.12
2017-05-01T22:29:56.505Z,4.72
2017-05-01T22:32:25.690Z,4.98
2017-05-01T22:34:54.890Z,6.24
2017-05-01T22:37:24.100Z,4.92
2017-05-01T22:39:53.314Z,5.30
2017-05-01T22:42:22.501Z,4.72
2017-05-01T22:44:51.715Z,5.34
2017-05-01T22:47:20.946Z,4.48
2017-05-01T22:49:50.141Z,4.56
2017-05-01T22:52:19.318Z,4.90
2017-05-01T22:54:48.561Z,5.28
2017-05-01T22:57:18.362Z,4.88
2017-05-01T22:59:47.569Z,4.12
2017-05-01T23:02:16.778Z,4.24
2017-05-01T23:04:45.958Z,5.32
2017-05-01T23:07:15.253Z,5.18
2017-05-01T23:09:44.432Z,4.18
2017-05-01T23:12:13.626Z,4.06
2017-05-01T23:14:42.917Z,4.14
2017-05-01T23:17:12.097Z,4.96
2017-05-01T23:19:41.305Z,4.34
2017-05-01T23:22:10.607Z,3.84
2017-05-01T23:24:39.801Z,4.96
2017-05-01T23:27:09.002Z,4.20
2017-05-01T23:29:38.219Z,4.04
2017-05-01T23:32:07.425Z,4.40
2017-05-01T23:34:37.392Z,4.50
2017-05-01T23:37:06.618Z,4.36
2017-05-01T23:39:35.811Z,4.46
2017-05-01T23:42:04.999Z,3.52
2017-05-01T23:44:34.194Z,3.30
2017-05-01T23:47:03.390Z,3.74
2017-05-01T23:49:32.844Z,4.18
2017-05-01T23:52:02.072Z,4.08
2017-05-01T23:54:31.410Z,3.98
2017-05-01T23:57:00.589Z,3.80
2017-05-01T23:59:29.829Z,4.36
